createdAt,value
2023-02-27T00:03:07.340Z,3.60
2023-02-27T00:07:11.145Z,3.70
2023-02-27T00:11:16.205Z,3.17
2023-02-27T00:15:21.341Z,4.00
2023-02-27T00:19:28.382Z,3.53
2023-02-27T00:23:31.992Z,3.90
2023-02-27T00:27:37.833Z,4.07
2023-02-27T00:32:06.850Z,3.53
2023-02-27T00:36:35.835Z,3.13
2023-02-27T00:40:44.490Z,4.00
2023-02-27T00:44:49.439Z,4.13
2023-02-27T00:48:53.131Z,3.37
2023-02-27T00:53:02.102Z,3.17
2023-02-27T00:57:05.674Z,3.27
2023-02-27T01:01:10.577Z,3.70
2023-02-27T01:05:30.646Z,3.87
2023-02-27T01:10:07.517Z,3.83
2023-02-27T01:14:11.043Z,3.80
2023-02-27T01:18:15.958Z,3.70
2023-02-27T01:22:19.519Z,3.47
2023-02-27T01:26:23.243Z,3.90
2023-02-27T01:30:26.950Z,3.77
2023-02-27T01:34:37.869Z,4.70
2023-02-27T01:38:41.608Z,3.80
2023-02-27T01:42:46.942Z,3.83
2023-02-27T01:46:51.740Z,3.97
2023-02-27T01:51:00.240Z,4.23
2023-02-27T01:55:31.687Z,3.87
2023-02-27T02:00:00.217Z,3.73
2023-02-27T02:04:31.231Z,4.10
2023-02-27T02:08:40.546Z,4.00
2023-02-27T02:12:45.330Z,3.80
2023-02-27T02:17:27.742Z,4.73
2023-02-27T02:22:10.034Z,3.93
2023-02-27T02:26:35.110Z,4.03
2023-02-27T02:31:35.542Z,4.03
2023-02-27T02:36:13.549Z,3.90
2023-02-27T02:40:29.644Z,5.23
2023-02-27T02:44:49.151Z,4.87
2023-02-27T02:48:57.645Z,4.10
2023-02-27T02:53:42.567Z,3.93
2023-02-27T02:58:15.005Z,4.23
2023-02-27T03:02:23.546Z,4.23
2023-02-27T03:06:31.044Z,3.87
2023-02-27T03:10:42.140Z,3.33
2023-02-27T03:19:26.518Z,4.33
2023-02-27T03:23:35.880Z,4.00
2023-02-27T03:27:45.038Z,4.33
2023-02-27T03:36:17.198Z,4.30
2023-02-27T03:40:34.029Z,4.40
2023-02-27T03:45:09.963Z,5.30
2023-02-27T03:49:14.973Z,3.77
2023-02-27T03:53:42.560Z,5.23
2023-02-27T03:57:48.219Z,4.63
2023-02-27T04:01:53.596Z,4.40
2023-02-27T04:06:43.216Z,4.10
2023-02-27T04:11:26.372Z,3.30
2023-02-27T04:15:42.997Z,4.07
2023-02-27T04:20:25.239Z,3.73
2023-02-27T04:24:40.570Z,4.10
2023-02-27T04:28:49.388Z,4.03
2023-02-27T04:32:56.420Z,3.90
2023-02-27T04:37:03.910Z,3.90
2023-02-27T04:42:03.537Z,3.57
2023-02-27T04:55:47.504Z,6.50
2023-02-27T04:59:57.156Z,4.07
2023-02-27T05:04:04.629Z,3.97
2023-02-27T05:08:34.902Z,5.37
2023-02-27T05:12:47.673Z,4.50
2023-02-27T05:16:55.397Z,4.77
2023-02-27T05:21:32.015Z,4.53
2023-02-27T05:25:39.669Z,4.60
2023-02-27T05:30:04.784Z,3.90
2023-02-27T05:34:23.198Z,4.03
2023-02-27T05:38:31.260Z,4.33
2023-02-27T05:42:38.460Z,3.93
2023-02-27T05:47:10.636Z,5.43
2023-02-27T05:51:47.897Z,4.53
2023-02-27T05:55:55.187Z,4.37
2023-02-27T06:00:04.489Z,4.67
2023-02-27T06:04:15.348Z,4.17
2023-02-27T06:08:18.868Z,4.13
2023-02-27T06:12:23.736Z,3.83
2023-02-27T06:16:29.970Z,3.50
2023-02-27T06:20:33.864Z,2.97
2023-02-27T06:24:45.976Z,3.40
2023-02-27T06:28:51.270Z,2.73
2023-02-27T06:33:12.507Z,2.00
2023-02-27T06:37:15.968Z,2.93
2023-02-27T06:41:32.541Z,2.90
2023-02-27T06:45:37.748Z,2.67
2023-02-27T06:50:03.571Z,7.90
2023-02-27T06:54:09.256Z,3.50
2023-02-27T06:58:13.973Z,2.07
2023-02-27T07:02:20.722Z,2.27
2023-02-27T07:06:24.782Z,1.70
2023-02-27T07:10:53.170Z,1.10
2023-02-27T07:14:58.336Z,1.60
2023-02-27T07:19:29.177Z,1.60
2023-02-27T07:23:32.849Z,1.00
2023-02-27T07:27:38.698Z,1.70
2023-02-27T07:31:42.910Z,1.80
2023-02-27T07:36:17.155Z,1.50
2023-02-27T07:40:20.966Z,1.20
2023-02-27T07:44:30.201Z,1.50
2023-02-27T07:48:34.788Z,1.40
2023-02-27T07:52:41.517Z,1.00
2023-02-27T07:56:46.126Z,1.33
2023-02-27T08:00:49.949Z,1.00
2023-02-27T08:04:57.218Z,1.03
2023-02-27T08:09:04.140Z,0.67
2023-02-27T08:13:07.790Z,1.10
2023-02-27T08:18:21.949Z,0.90
2023-02-27T08:22:25.781Z,1.30
2023-02-27T08:26:32.462Z,1.00
2023-02-27T08:30:36.146Z,0.83
2023-02-27T08:35:10.140Z,1.00
2023-02-27T08:39:18.332Z,0.70
2023-02-27T08:43:25.105Z,0.97
2023-02-27T08:47:28.644Z,0.90
2023-02-27T08:52:26.392Z,0.50
2023-02-27T08:56:30.587Z,0.90
2023-02-27T09:00:36.451Z,0.90
2023-02-27T09:04:44.092Z,0.90
2023-02-27T09:08:49.124Z,1.17
2023-02-27T09:12:53.015Z,0.70
2023-02-27T09:16:58.613Z,0.80
2023-02-27T09:21:29.586Z,1.43
2023-02-27T09:25:33.436Z,0.83
2023-02-27T09:30:09.861Z,0.80
2023-02-27T09:34:15.002Z,0.97
2023-02-27T09:38:48.204Z,0.90
2023-02-27T09:42:59.439Z,1.03
2023-02-27T09:47:05.118Z,1.13
2023-02-27T09:51:41.394Z,0.83
2023-02-27T09:55:47.944Z,0.90
2023-02-27T10:01:00.997Z,0.70
2023-02-27T10:06:21.779Z,1.03
2023-02-27T10:10:39.499Z,0.80
2023-02-27T10:14:47.187Z,1.23
2023-02-27T10:19:07.660Z,0.80
2023-02-27T10:23:16.486Z,0.70
2023-02-27T10:27:23.329Z,1.00
2023-02-27T10:31:34.620Z,0.70
2023-02-27T10:35:42.402Z,0.50
2023-02-27T10:40:42.549Z,0.67
2023-02-27T10:44:57.013Z,0.60
2023-02-27T10:49:01.985Z,0.83
2023-02-27T10:53:18.129Z,0.60
2023-02-27T10:57:27.894Z,0.87
2023-02-27T11:01:48.019Z,0.73
2023-02-27T11:06:05.678Z,0.67
2023-02-27T11:10:20.745Z,0.70
2023-02-27T11:14:35.036Z,0.70
2023-02-27T11:18:41.576Z,0.50
2023-02-27T11:22:45.408Z,0.87
2023-02-27T11:27:06.442Z,0.60
2023-02-27T11:31:36.029Z,0.50
2023-02-27T11:35:41.427Z,0.80
2023-02-27T11:40:06.516Z,0.80
2023-02-27T11:44:38.827Z,0.70
2023-02-27T11:48:52.802Z,0.70
2023-02-27T11:53:07.407Z,0.80
2023-02-27T12:02:21.855Z,0.80
2023-02-27T12:11:22.058Z,0.70
2023-02-27T12:15:48.210Z,0.60
2023-02-27T12:20:19.062Z,0.57
2023-02-27T12:24:26.330Z,0.50
2023-02-27T12:28:49.755Z,0.60
2023-02-27T12:33:12.568Z,0.50
2023-02-27T12:37:28.832Z,0.80
2023-02-27T12:41:59.175Z,0.70
2023-02-27T12:46:42.080Z,0.50
2023-02-27T12:51:22.181Z,0.63
2023-02-27T12:55:52.550Z,0.60
2023-02-27T13:00:13.316Z,0.60
2023-02-27T13:04:44.127Z,0.30
2023-02-27T13:09:32.442Z,0.40
2023-02-27T13:14:07.424Z,0.30
2023-02-27T13:18:55.016Z,0.40
2023-02-27T13:23:24.030Z,0.47
2023-02-27T13:32:41.332Z,0.53
2023-02-27T13:36:50.512Z,0.43
2023-02-27T13:41:36.292Z,0.40
2023-02-27T13:46:06.670Z,0.40
2023-02-27T13:50:47.669Z,0.50
2023-02-27T13:54:55.226Z,0.50
2023-02-27T13:59:24.193Z,0.50
2023-02-27T14:03:30.351Z,0.50
2023-02-27T14:07:52.934Z,0.50
2023-02-27T14:12:04.026Z,0.77
2023-02-27T14:16:09.749Z,0.50
2023-02-27T14:20:59.354Z,0.60
2023-02-27T14:25:06.901Z,0.60
2023-02-27T14:29:42.844Z,0.70
2023-02-27T14:34:32.086Z,0.60
2023-02-27T14:38:57.594Z,0.60
2023-02-27T14:43:22.934Z,0.60
2023-02-27T14:47:32.152Z,0.60
2023-02-27T14:51:38.874Z,0.67
2023-02-27T14:55:42.616Z,0.70
2023-02-27T14:59:49.409Z,0.70
2023-02-27T15:03:59.653Z,0.60
2023-02-27T15:08:03.867Z,0.60
2023-02-27T15:12:07.985Z,0.53
2023-02-27T15:16:38.932Z,0.60
2023-02-27T15:20:44.272Z,0.90
2023-02-27T15:25:49.928Z,0.70
2023-02-27T15:30:31.205Z,1.03
2023-02-27T15:41:32.739Z,0.70
2023-02-27T15:46:06.284Z,0.67
2023-02-27T15:50:32.260Z,0.70
2023-02-27T15:54:49.530Z,0.70
2023-02-27T15:59:00.565Z,0.70
2023-02-27T16:09:24.918Z,0.50
2023-02-27T16:19:36.868Z,0.80
2023-02-27T16:23:41.101Z,0.50
2023-02-27T16:28:22.181Z,0.60
2023-02-27T16:32:30.354Z,0.73
2023-02-27T16:36:56.359Z,0.87
2023-02-27T16:41:05.744Z,0.70
2023-02-27T16:55:43.402Z,0.60
2023-02-27T17:00:07.120Z,0.77
2023-02-27T17:04:25.558Z,0.83
2023-02-27T17:13:00.865Z,0.70
2023-02-27T17:17:16.326Z,0.70
2023-02-27T17:21:22.488Z,0.80
2023-02-27T17:25:28.638Z,0.70
2023-02-27T17:30:37.111Z,0.60
2023-02-27T17:35:10.643Z,0.80
2023-02-27T17:39:31.698Z,0.97
2023-02-27T17:49:56.187Z,1.20
2023-02-27T17:55:31.360Z,1.30
2023-02-27T18:18:17.359Z,1.33
2023-02-27T18:23:12.569Z,1.43
2023-02-27T18:44:52.086Z,1.67
2023-02-27T18:49:55.567Z,1.30
2023-02-27T19:23:17.303Z,2.00
2023-02-27T19:28:08.632Z,2.13
2023-02-27T19:43:13.675Z,3.07
2023-02-27T20:17:00.886Z,2.97
2023-02-27T22:48:22.122Z,4.00
